createdAt,value
2022-08-03T00:00:34.913Z,2.33
2022-08-03T00:02:36.636Z,2.15
2022-08-03T00:04:38.391Z,2.15
2022-08-03T00:06:40.184Z,1.95
2022-08-03T00:08:42.301Z,2.13
2022-08-03T00:10:44.141Z,1.85
2022-08-03T00:12:45.917Z,2.10
2022-08-03T00:14:47.597Z,2.28
2022-08-03T00:16:49.680Z,2.30
2022-08-03T00:18:51.669Z,1.75
2022-08-03T00:20:53.495Z,1.83
2022-08-03T00:22:55.261Z,2.50
2022-08-03T00:24:56.983Z,2.17
2022-08-03T00:26:59.028Z,1.98
2022-08-03T00:29:00.801Z,2.53
2022-08-03T00:31:02.538Z,2.25
2022-08-03T00:33:05.063Z,2.55
2022-08-03T00:35:14.771Z,1.98
2022-08-03T00:37:40.671Z,1.70
2022-08-03T00:39:45.980Z,1.80
2022-08-03T00:41:48.931Z,2.03
2022-08-03T00:43:50.653Z,2.13
2022-08-03T00:45:52.424Z,1.70
2022-08-03T00:47:55.026Z,1.98
2022-08-03T00:49:56.751Z,2.00
2022-08-03T00:51:59.820Z,1.90
2022-08-03T00:54:10.355Z,2.28
2022-08-03T00:56:16.523Z,2.15
2022-08-03T00:58:18.259Z,2.17
2022-08-03T01:00:24.958Z,1.83
2022-08-03T01:02:28.726Z,2.17
2022-08-03T01:04:30.397Z,1.70
2022-08-03T01:06:41.497Z,2.05
2022-08-03T01:09:20.716Z,1.83
2022-08-03T01:11:34.140Z,2.25
2022-08-03T01:14:04.080Z,1.85
2022-08-03T01:16:25.916Z,1.63
2022-08-03T01:18:56.866Z,2.28
2022-08-03T01:21:01.259Z,2.22
2022-08-03T01:23:38.584Z,2.17
2022-08-03T01:26:04.010Z,1.90
2022-08-03T01:28:36.822Z,1.85
2022-08-03T01:30:40.148Z,2.25
2022-08-03T01:33:17.234Z,2.08
2022-08-03T01:35:43.591Z,2.30
2022-08-03T01:37:52.725Z,1.85
2022-08-03T01:39:56.751Z,2.45
2022-08-03T01:42:01.169Z,1.60
2022-08-03T01:44:30.047Z,1.95
2022-08-03T01:46:26.541Z,1.90
2022-08-03T01:48:28.609Z,2.15
2022-08-03T01:50:31.474Z,2.30
2022-08-03T01:52:34.031Z,2.13
2022-08-03T01:54:38.286Z,2.03
2022-08-03T01:56:40.728Z,2.15
2022-08-03T01:58:43.925Z,1.80
2022-08-03T02:00:47.220Z,2.35
2022-08-03T02:02:50.652Z,2.05
2022-08-03T02:04:54.514Z,1.92
2022-08-03T02:07:02.903Z,2.58
2022-08-03T02:09:06.306Z,2.17
2022-08-03T02:11:08.235Z,2.03
2022-08-03T02:13:10.894Z,2.35
2022-08-03T02:15:13.208Z,2.33
2022-08-03T02:17:16.534Z,2.60
2022-08-03T02:19:18.626Z,2.08
2022-08-03T02:21:55.482Z,2.38
2022-08-03T02:23:42.434Z,2.60
2022-08-03T02:25:49.130Z,2.42
2022-08-03T02:27:59.360Z,2.50
2022-08-03T02:30:06.829Z,2.67
2022-08-03T02:32:21.742Z,2.65
2022-08-03T02:34:26.772Z,2.08
2022-08-03T02:36:36.214Z,2.80
2022-08-03T02:38:41.693Z,2.17
2022-08-03T02:40:44.619Z,2.30
2022-08-03T02:42:47.561Z,2.75
2022-08-03T02:44:50.452Z,2.13
2022-08-03T02:46:56.088Z,2.30
2022-08-03T02:49:00.043Z,2.35
2022-08-03T02:51:22.824Z,2.35
2022-08-03T02:53:25.008Z,2.28
2022-08-03T02:55:29.832Z,2.28
2022-08-03T02:57:32.026Z,2.83
2022-08-03T02:59:37.551Z,2.40
2022-08-03T03:01:39.558Z,3.42
2022-08-03T03:03:44.853Z,2.95
2022-08-03T03:05:52.216Z,3.03
2022-08-03T03:07:57.446Z,2.80
2022-08-03T03:09:59.559Z,2.33
2022-08-03T03:12:01.790Z,2.85
2022-08-03T03:14:04.951Z,2.67
2022-08-03T03:16:13.041Z,2.58
2022-08-03T03:18:18.954Z,2.38
2022-08-03T03:20:29.669Z,2.30
2022-08-03T03:22:33.875Z,2.88
2022-08-03T03:24:36.515Z,2.72
2022-08-03T03:26:42.409Z,2.30
2022-08-03T03:28:44.598Z,2.83
2022-08-03T03:30:52.835Z,2.13
2022-08-03T03:32:55.521Z,2.47
2022-08-03T03:34:59.280Z,2.17
2022-08-03T03:37:01.879Z,3.10
2022-08-03T03:39:15.368Z,2.40
2022-08-03T03:41:17.912Z,2.63
2022-08-03T03:43:23.841Z,2.00
2022-08-03T03:45:26.651Z,2.47
2022-08-03T03:47:32.841Z,2.65
2022-08-03T03:49:34.874Z,2.42
2022-08-03T03:51:36.716Z,2.20
2022-08-03T03:53:38.429Z,2.70
2022-08-03T03:55:59.007Z,2.97
2022-08-03T03:58:04.098Z,2.65
2022-08-03T04:00:06.590Z,2.90
2022-08-03T04:02:09.527Z,2.35
2022-08-03T04:04:29.829Z,2.78
2022-08-03T04:06:50.767Z,2.60
2022-08-03T04:09:11.047Z,2.63
2022-08-03T04:11:29.489Z,2.85
2022-08-03T04:13:52.100Z,2.65
2022-08-03T04:15:55.755Z,2.90
2022-08-03T04:17:58.578Z,2.78
2022-08-03T04:20:01.560Z,2.60
2022-08-03T04:22:07.748Z,2.47
2022-08-03T04:24:10.669Z,3.15
2022-08-03T04:26:14.107Z,2.90
2022-08-03T04:28:31.037Z,2.80
2022-08-03T04:30:36.911Z,3.13
2022-08-03T04:32:41.869Z,2.38
2022-08-03T04:34:47.526Z,2.67
2022-08-03T04:36:50.509Z,2.88
2022-08-03T04:39:05.159Z,2.25
2022-08-03T04:41:07.803Z,2.63
2022-08-03T04:43:10.559Z,2.50
2022-08-03T04:45:13.564Z,2.72
2022-08-03T04:47:16.246Z,2.42
2022-08-03T04:49:19.346Z,2.63
2022-08-03T04:51:21.866Z,2.55
2022-08-03T04:53:23.622Z,2.92
2022-08-03T04:55:32.544Z,2.53
2022-08-03T04:57:34.359Z,2.60
2022-08-03T04:59:36.259Z,2.60
2022-08-03T05:01:42.674Z,2.40
2022-08-03T05:03:44.365Z,2.63
2022-08-03T05:05:49.937Z,2.53
2022-08-03T05:07:53.117Z,2.60
2022-08-03T05:10:01.405Z,3.08
2022-08-03T05:12:05.815Z,2.75
2022-08-03T05:14:07.519Z,2.63
2022-08-03T05:16:09.264Z,2.83
2022-08-03T05:18:14.234Z,2.95
2022-08-03T05:20:16.578Z,2.97
2022-08-03T05:22:21.908Z,2.97
2022-08-03T05:24:23.633Z,3.85
2022-08-03T05:26:25.391Z,3.08
2022-08-03T05:28:28.556Z,3.05
2022-08-03T05:30:33.827Z,3.17
2022-08-03T05:32:36.106Z,2.80
2022-08-03T05:34:38.050Z,2.95
2022-08-03T05:36:39.914Z,2.80
2022-08-03T05:38:41.661Z,3.05
2022-08-03T05:40:56.642Z,3.22
2022-08-03T05:43:01.458Z,2.70
2022-08-03T05:45:15.788Z,2.83
2022-08-03T05:47:17.590Z,3.00
2022-08-03T05:49:19.734Z,2.95
2022-08-03T05:51:21.731Z,2.40
2022-08-03T05:53:23.422Z,2.80
2022-08-03T05:55:25.262Z,2.85
2022-08-03T05:57:27.033Z,3.60
2022-08-03T05:59:38.056Z,2.78
2022-08-03T06:01:40.337Z,2.47
2022-08-03T06:03:42.161Z,3.13
2022-08-03T06:05:44.799Z,2.45
2022-08-03T06:08:02.759Z,2.72
2022-08-03T06:10:37.386Z,2.22
2022-08-03T06:12:27.415Z,2.35
2022-08-03T06:14:29.130Z,2.40
2022-08-03T06:16:30.871Z,2.65
2022-08-03T06:18:34.955Z,2.53
2022-08-03T06:20:43.472Z,2.30
2022-08-03T06:22:50.432Z,2.20
2022-08-03T06:24:53.795Z,2.28
2022-08-03T06:26:56.969Z,2.28
2022-08-03T06:28:59.299Z,2.00
2022-08-03T06:31:22.890Z,2.35
2022-08-03T06:34:31.185Z,2.17
2022-08-03T06:35:48.476Z,2.03
2022-08-03T06:37:51.928Z,2.33
2022-08-03T06:39:54.389Z,2.28
2022-08-03T06:41:56.282Z,1.98
2022-08-03T06:44:03.627Z,2.63
2022-08-03T06:46:06.324Z,2.20
2022-08-03T06:48:11.283Z,2.22
2022-08-03T06:50:17.859Z,2.45
2022-08-03T06:52:37.682Z,4.05
2022-08-03T06:54:40.346Z,2.40
2022-08-03T06:56:42.069Z,2.85
2022-08-03T06:58:43.867Z,2.08
2022-08-03T07:00:54.275Z,2.00
2022-08-03T07:02:58.299Z,2.10
2022-08-03T07:05:00.644Z,1.80
2022-08-03T07:07:02.380Z,1.92
2022-08-03T07:09:04.358Z,1.90
2022-08-03T07:11:06.362Z,1.88
2022-08-03T07:13:08.383Z,1.95
2022-08-03T07:15:20.603Z,2.00
2022-08-03T07:17:35.284Z,1.70
2022-08-03T07:19:37.087Z,1.83
2022-08-03T07:21:38.901Z,2.03
2022-08-03T07:23:40.762Z,2.13
2022-08-03T07:25:42.490Z,1.50
2022-08-03T07:27:47.813Z,1.67
2022-08-03T07:29:53.239Z,2.20
2022-08-03T07:31:59.806Z,1.65
2022-08-03T07:34:01.640Z,1.90
2022-08-03T07:36:03.663Z,1.50
2022-08-03T07:38:05.788Z,1.88
2022-08-03T07:40:08.049Z,1.83
2022-08-03T07:42:11.197Z,1.73
2022-08-03T07:44:13.167Z,1.33
2022-08-03T07:46:15.198Z,2.03
2022-08-03T07:48:17.234Z,1.70
2022-08-03T07:50:18.995Z,1.75
2022-08-03T07:52:39.380Z,1.60
2022-08-03T07:54:41.129Z,1.98
2022-08-03T07:56:43.706Z,2.17
2022-08-03T07:58:45.772Z,1.70
2022-08-03T08:00:47.710Z,1.73
2022-08-03T08:02:49.766Z,1.77
2022-08-03T08:04:53.902Z,1.48
2022-08-03T08:06:57.389Z,1.40
2022-08-03T08:09:02.364Z,1.70
2022-08-03T08:11:04.898Z,1.65
2022-08-03T08:13:06.872Z,1.70
2022-08-03T08:15:09.973Z,2.05
2022-08-03T08:17:11.881Z,1.73
2022-08-03T08:19:14.966Z,1.80
2022-08-03T08:21:16.816Z,1.58
2022-08-03T08:23:43.789Z,1.30
2022-08-03T08:25:46.699Z,1.23
2022-08-03T08:28:22.334Z,1.50
2022-08-03T08:30:16.004Z,1.77
2022-08-03T08:32:20.549Z,1.40
2022-08-03T08:34:22.319Z,1.17
2022-08-03T08:36:25.519Z,1.00
2022-08-03T08:38:27.339Z,1.00
2022-08-03T08:40:29.571Z,1.00
2022-08-03T08:42:34.957Z,0.90
2022-08-03T08:44:39.845Z,0.95
2022-08-03T08:46:41.678Z,1.02
2022-08-03T08:48:44.613Z,0.90
2022-08-03T08:50:46.694Z,1.05
2022-08-03T08:52:50.639Z,0.88
2022-08-03T08:55:04.675Z,0.82
2022-08-03T08:57:21.377Z,0.90
2022-08-03T08:59:48.262Z,1.00
2022-08-03T09:01:50.449Z,1.17
2022-08-03T09:03:54.565Z,2.47
2022-08-03T09:05:56.659Z,1.20
2022-08-03T09:07:59.182Z,0.98
2022-08-03T09:10:11.789Z,1.23
2022-08-03T09:12:39.152Z,1.33
2022-08-03T09:14:49.755Z,1.00
2022-08-03T09:17:02.549Z,1.08
2022-08-03T09:19:14.507Z,1.05
2022-08-03T09:21:31.715Z,1.00
2022-08-03T09:24:02.251Z,1.35
2022-08-03T09:26:04.944Z,1.00
2022-08-03T09:28:52.559Z,1.10
2022-08-03T09:30:47.846Z,1.85
2022-08-03T09:32:50.793Z,1.00
2022-08-03T09:34:57.874Z,0.90
2022-08-03T09:37:01.189Z,0.95
2022-08-03T09:39:10.902Z,0.93
2022-08-03T09:41:18.732Z,1.83
2022-08-03T09:43:21.574Z,0.90
2022-08-03T09:45:27.084Z,1.05
2022-08-03T09:47:31.050Z,0.70
2022-08-03T09:49:33.224Z,0.77
2022-08-03T09:52:33.519Z,0.75
2022-08-03T09:54:00.334Z,1.15
2022-08-03T09:56:35.701Z,1.00
2022-08-03T09:58:26.565Z,0.80
2022-08-03T10:00:28.571Z,1.10
2022-08-03T10:02:30.285Z,1.10
2022-08-03T10:04:32.243Z,0.77
2022-08-03T10:06:34.160Z,1.10
2022-08-03T10:08:35.899Z,0.90
2022-08-03T10:10:44.576Z,1.13
2022-08-03T10:12:48.284Z,0.90
2022-08-03T10:14:52.607Z,1.05
2022-08-03T10:16:54.336Z,0.95
2022-08-03T10:18:57.759Z,1.02
2022-08-03T10:21:05.912Z,0.98
2022-08-03T10:23:08.429Z,1.15
2022-08-03T10:25:13.615Z,1.10
2022-08-03T10:27:16.051Z,0.85
2022-08-03T10:29:25.731Z,0.90
2022-08-03T10:31:33.453Z,1.10
2022-08-03T10:33:52.121Z,1.05
2022-08-03T10:35:57.545Z,1.20
2022-08-03T10:38:06.618Z,1.88
2022-08-03T10:40:33.444Z,1.23
2022-08-03T10:42:38.901Z,1.13
2022-08-03T10:44:43.849Z,1.13
2022-08-03T10:46:47.810Z,1.08
2022-08-03T10:48:52.626Z,0.90
2022-08-03T10:50:55.245Z,1.08
2022-08-03T10:53:07.239Z,1.10
2022-08-03T10:55:51.102Z,1.00
2022-08-03T10:57:58.850Z,1.00
2022-08-03T11:00:03.720Z,1.00
2022-08-03T11:02:08.546Z,0.80
2022-08-03T11:04:18.328Z,0.90
2022-08-03T11:06:20.647Z,0.93
2022-08-03T11:08:31.148Z,0.90
2022-08-03T11:10:33.096Z,1.15
2022-08-03T11:12:35.134Z,1.73
2022-08-03T11:14:48.340Z,0.98
2022-08-03T11:16:53.266Z,1.20
2022-08-03T11:19:04.148Z,1.23
2022-08-03T11:21:06.527Z,1.25
2022-08-03T11:23:08.548Z,0.82
2022-08-03T11:25:53.504Z,0.93
2022-08-03T11:27:33.876Z,0.90
2022-08-03T11:29:35.648Z,2.40
2022-08-03T11:31:49.746Z,1.75
2022-08-03T11:34:06.287Z,1.35
2022-08-03T11:36:10.732Z,4.88
2022-08-03T11:38:12.692Z,1.98
2022-08-03T11:40:39.803Z,1.10
2022-08-03T11:42:44.118Z,1.52
2022-08-03T11:44:47.438Z,0.90
2022-08-03T11:46:49.704Z,0.90
2022-08-03T11:48:51.657Z,1.13
2022-08-03T11:50:53.714Z,0.80
2022-08-03T11:52:55.498Z,1.15
2022-08-03T11:54:57.596Z,1.08
2022-08-03T11:57:02.503Z,0.90
2022-08-03T11:59:20.225Z,1.00
2022-08-03T12:01:24.500Z,1.05
2022-08-03T12:03:32.918Z,0.88
2022-08-03T12:05:39.900Z,1.08
2022-08-03T12:08:02.542Z,1.10
2022-08-03T12:10:31.537Z,0.93
2022-08-03T12:12:35.335Z,0.77
2022-08-03T12:14:49.951Z,0.80
2022-08-03T12:16:56.859Z,0.90
2022-08-03T12:19:03.890Z,0.90
2022-08-03T12:21:10.894Z,0.85
2022-08-03T12:23:16.234Z,1.10
2022-08-03T12:25:39.288Z,0.98
2022-08-03T12:27:42.036Z,1.45
2022-08-03T12:29:58.496Z,1.30
2022-08-03T12:32:01.145Z,1.20
2022-08-03T12:34:09.437Z,0.98
2022-08-03T12:36:11.538Z,0.82
2022-08-03T12:38:13.525Z,1.00
2022-08-03T12:40:20.589Z,1.10
2022-08-03T12:42:50.519Z,1.00
2022-08-03T12:44:54.620Z,0.98
2022-08-03T12:46:59.150Z,0.98
2022-08-03T12:49:11.416Z,1.00
2022-08-03T12:51:13.222Z,1.20
2022-08-03T12:53:29.086Z,1.20
2022-08-03T12:55:57.900Z,1.10
2022-08-03T12:57:57.799Z,1.00
2022-08-03T13:00:21.419Z,1.00
2022-08-03T13:02:31.277Z,1.00
2022-08-03T13:04:35.284Z,0.98
2022-08-03T13:06:37.275Z,1.00
2022-08-03T13:08:39.004Z,1.13
2022-08-03T13:10:40.808Z,1.17
2022-08-03T13:12:48.071Z,1.02
2022-08-03T13:14:55.939Z,0.77
2022-08-03T13:16:57.681Z,1.10
2022-08-03T13:18:59.410Z,0.93
2022-08-03T13:21:02.219Z,0.85
2022-08-03T13:23:04.094Z,0.88
2022-08-03T13:25:06.124Z,1.00
2022-08-03T13:27:22.059Z,0.90
2022-08-03T13:29:29.983Z,1.17
2022-08-03T13:31:31.877Z,1.20
2022-08-03T13:33:33.901Z,1.10
2022-08-03T13:35:35.639Z,1.10
2022-08-03T13:37:37.980Z,1.17
2022-08-03T13:39:58.278Z,0.88
2022-08-03T13:42:01.989Z,0.98
2022-08-03T13:44:26.726Z,0.93
2022-08-03T13:46:27.073Z,1.10
2022-08-03T13:48:36.228Z,1.00
2022-08-03T13:50:42.954Z,0.90
2022-08-03T13:52:46.413Z,1.00
2022-08-03T13:54:48.115Z,0.93
2022-08-03T13:56:53.045Z,0.90
2022-08-03T13:58:55.355Z,0.93
2022-08-03T14:00:57.119Z,0.98
2022-08-03T14:03:06.653Z,0.80
2022-08-03T14:05:11.380Z,0.80
2022-08-03T14:07:14.824Z,1.10
2022-08-03T14:09:17.134Z,1.02
2022-08-03T14:11:18.879Z,0.93
2022-08-03T14:13:20.634Z,1.05
2022-08-03T14:15:22.676Z,0.90
2022-08-03T14:17:24.366Z,0.80
2022-08-03T14:19:26.333Z,0.80
2022-08-03T14:21:28.940Z,0.98
2022-08-03T14:23:30.805Z,0.88
2022-08-03T14:25:43.526Z,0.98
2022-08-03T14:27:52.540Z,0.90
2022-08-03T14:29:56.650Z,1.08
2022-08-03T14:32:12.191Z,0.90
2022-08-03T14:34:14.644Z,1.00
2022-08-03T14:36:16.407Z,0.95
2022-08-03T14:38:27.127Z,0.90
2022-08-03T14:40:28.838Z,0.80
2022-08-03T14:42:30.616Z,0.90
2022-08-03T14:44:32.266Z,0.80
2022-08-03T14:46:33.991Z,1.02
2022-08-03T14:50:34.939Z,1.20
2022-08-03T14:50:57.628Z,1.10
2022-08-03T14:52:59.866Z,0.98
2022-08-03T14:55:07.197Z,0.75
2022-08-03T14:57:09.030Z,1.20
2022-08-03T14:59:10.717Z,1.00
2022-08-03T15:02:02.138Z,0.80
2022-08-03T15:03:34.184Z,0.80
2022-08-03T15:05:35.944Z,0.82
2022-08-03T15:07:37.662Z,1.08
2022-08-03T15:09:39.355Z,0.95
2022-08-03T15:11:41.793Z,0.90
2022-08-03T15:13:43.484Z,1.00
2022-08-03T15:15:45.946Z,0.80
2022-08-03T15:17:59.803Z,1.00
2022-08-03T15:20:28.885Z,0.93
2022-08-03T15:22:25.234Z,0.90
2022-08-03T15:24:36.243Z,0.98
2022-08-03T15:26:41.580Z,1.00
2022-08-03T15:29:04.374Z,0.80
2022-08-03T15:31:37.396Z,0.93
2022-08-03T15:33:40.193Z,1.00
2022-08-03T15:35:42.018Z,1.10
2022-08-03T15:37:43.791Z,0.80
2022-08-03T15:39:59.158Z,0.80
2022-08-03T15:42:02.264Z,1.08
2022-08-03T15:44:08.853Z,1.10
2022-08-03T15:46:28.832Z,1.02
2022-08-03T15:48:31.254Z,1.30
2022-08-03T15:50:33.083Z,1.10
2022-08-03T15:52:34.957Z,0.80
2022-08-03T15:54:36.676Z,0.90
2022-08-03T15:56:38.781Z,0.90
2022-08-03T15:59:13.348Z,1.00
2022-08-03T16:01:19.610Z,0.90
2022-08-03T16:03:21.969Z,1.00
2022-08-03T16:05:23.731Z,0.82
2022-08-03T16:08:02.863Z,0.90
2022-08-03T16:10:06.294Z,2.42
2022-08-03T16:12:16.363Z,0.70
2022-08-03T16:14:34.661Z,0.65
2022-08-03T16:16:40.973Z,1.20
2022-08-03T16:18:42.724Z,1.15
2022-08-03T16:20:45.256Z,1.30
2022-08-03T16:22:48.676Z,0.80
2022-08-03T16:24:51.212Z,0.70
2022-08-03T16:26:52.851Z,1.10
2022-08-03T16:28:54.526Z,1.00
2022-08-03T16:30:56.205Z,1.00
2022-08-03T16:32:58.012Z,0.98
2022-08-03T16:35:00.456Z,1.00
2022-08-03T16:37:16.464Z,0.80
2022-08-03T16:39:23.946Z,1.30
2022-08-03T16:41:25.787Z,0.80
2022-08-03T16:43:47.434Z,0.85
2022-08-03T16:45:49.411Z,0.70
2022-08-03T16:48:06.018Z,0.90
2022-08-03T16:50:14.249Z,1.00
2022-08-03T16:52:19.142Z,0.98
2022-08-03T16:54:21.626Z,1.50
2022-08-03T16:56:23.577Z,1.10
2022-08-03T16:58:41.379Z,0.80
2022-08-03T17:00:44.686Z,0.90
2022-08-03T17:02:50.747Z,0.70
2022-08-03T17:04:53.411Z,0.80
2022-08-03T17:06:55.554Z,1.02
2022-08-03T17:08:58.549Z,0.80
2022-08-03T17:11:00.383Z,0.80
2022-08-03T17:13:02.014Z,0.95
2022-08-03T17:15:05.134Z,0.82
2022-08-03T17:17:18.240Z,0.80
2022-08-03T17:19:23.247Z,0.85
2022-08-03T17:21:30.951Z,0.70
2022-08-03T17:23:43.512Z,0.68
2022-08-03T17:26:01.825Z,1.02
2022-08-03T17:28:49.607Z,0.90
2022-08-03T17:30:47.145Z,0.75
2022-08-03T17:32:56.900Z,0.80
2022-08-03T17:34:59.706Z,1.00
2022-08-03T17:37:04.058Z,1.30
2022-08-03T17:39:06.956Z,0.85
2022-08-03T17:41:11.222Z,0.80
2022-08-03T17:44:13.736Z,0.98
2022-08-03T17:45:52.093Z,1.27
2022-08-03T17:47:59.647Z,1.00
2022-08-03T17:50:01.289Z,0.90
2022-08-03T17:52:10.006Z,0.70
2022-08-03T17:54:27.120Z,0.80
2022-08-03T17:59:52.437Z,1.13
2022-08-03T18:02:29.991Z,0.73
2022-08-03T18:04:34.110Z,0.90
2022-08-03T18:06:38.571Z,0.90
2022-08-03T18:09:04.867Z,0.90
2022-08-03T18:11:23.761Z,1.02
2022-08-03T18:16:13.353Z,0.90
2022-08-03T18:18:32.480Z,1.05
2022-08-03T18:20:41.227Z,1.00
2022-08-03T18:22:44.240Z,1.80
2022-08-03T18:24:49.760Z,8.02
2022-08-03T18:26:51.914Z,23.75
2022-08-03T18:28:54.781Z,28.23
2022-08-03T18:30:56.897Z,11.32
2022-08-03T18:34:19.775Z,12.45
2022-08-03T18:35:24.713Z,19.58
2022-08-03T18:37:27.986Z,8.02
2022-08-03T18:39:32.507Z,6.25
2022-08-03T18:41:35.366Z,7.53
2022-08-03T18:43:46.168Z,7.93
2022-08-03T18:45:55.953Z,4.38
2022-08-03T18:48:12.203Z,4.05
2022-08-03T18:50:25.314Z,2.80
2022-08-03T18:52:45.827Z,1.50
2022-08-03T18:55:19.745Z,1.98
2022-08-03T18:57:30.385Z,2.03
2022-08-03T19:00:00.045Z,1.52
2022-08-03T19:02:09.343Z,2.20
2022-08-03T19:04:16.907Z,1.48
2022-08-03T19:06:24.039Z,1.40
2022-08-03T19:08:55.676Z,1.48
2022-08-03T19:11:02.442Z,1.42
2022-08-03T19:13:30.797Z,1.45
2022-08-03T19:15:36.539Z,1.65
2022-08-03T19:17:50.076Z,2.10
2022-08-03T19:19:55.275Z,1.70
2022-08-03T19:21:58.457Z,1.90
2022-08-03T19:24:01.663Z,2.25
2022-08-03T19:26:03.540Z,1.88
2022-08-03T19:28:06.096Z,1.30
2022-08-03T19:30:21.986Z,2.10
2022-08-03T19:32:29.622Z,1.90
2022-08-03T19:34:32.891Z,1.70
2022-08-03T19:36:40.422Z,2.00
2022-08-03T19:38:43.993Z,1.00
2022-08-03T19:40:48.665Z,1.20
2022-08-03T19:43:00.870Z,1.10
2022-08-03T19:45:11.306Z,1.30
2022-08-03T19:47:29.046Z,1.13
2022-08-03T19:50:05.028Z,1.40
2022-08-03T19:52:02.775Z,1.13
2022-08-03T19:54:04.901Z,1.98
2022-08-03T19:56:07.725Z,1.65
2022-08-03T19:58:17.723Z,1.20
2022-08-03T20:00:34.066Z,1.45
2022-08-03T20:02:40.067Z,1.58
2022-08-03T20:04:44.650Z,2.10
2022-08-03T20:06:47.143Z,1.55
2022-08-03T20:08:52.159Z,1.50
2022-08-03T20:10:54.520Z,1.35
2022-08-03T20:12:56.499Z,1.10
2022-08-03T20:14:58.717Z,2.10
2022-08-03T20:17:00.602Z,1.58
2022-08-03T20:19:05.193Z,1.80
2022-08-03T20:21:18.864Z,1.40
2022-08-03T20:23:20.997Z,1.65
2022-08-03T20:25:38.885Z,1.75
2022-08-03T20:28:07.687Z,1.70
2022-08-03T20:30:08.315Z,1.60
2022-08-03T20:32:10.339Z,1.73
2022-08-03T20:34:12.034Z,1.80
2022-08-03T20:36:19.244Z,1.90
2022-08-03T20:38:27.074Z,1.65
2022-08-03T20:40:29.163Z,1.48
2022-08-03T20:42:30.881Z,1.58
2022-08-03T20:44:32.640Z,1.35
2022-08-03T20:46:51.697Z,2.00
2022-08-03T20:48:59.630Z,1.30
2022-08-03T20:51:01.503Z,1.55
2022-08-03T20:53:05.954Z,1.55
2022-08-03T20:55:12.809Z,1.50
2022-08-03T20:57:16.807Z,1.73
2022-08-03T20:59:19.908Z,1.80
2022-08-03T21:01:27.943Z,1.65
2022-08-03T21:03:40.791Z,1.77
2022-08-03T21:05:57.510Z,1.77
2022-08-03T21:08:06.713Z,1.83
2022-08-03T21:10:28.437Z,1.80
2022-08-03T21:12:37.335Z,1.83
2022-08-03T21:12:55.925Z,0.85
2022-08-03T21:13:04.889Z,0.80
2022-08-03T21:15:09.856Z,1.80
2022-08-03T21:17:40.910Z,1.70
2022-08-03T21:19:51.960Z,1.77
2022-08-03T21:21:55.037Z,2.05
2022-08-03T21:23:58.890Z,2.28
2022-08-03T21:26:01.008Z,1.65
2022-08-03T21:28:06.009Z,1.40
2022-08-03T21:30:10.534Z,2.05
2022-08-03T21:32:16.493Z,2.15
2022-08-03T21:34:31.786Z,2.15
2022-08-03T21:36:36.594Z,2.00
2022-08-03T21:38:40.072Z,1.98
2022-08-03T21:40:41.814Z,1.77
2022-08-03T21:42:45.079Z,1.88
2022-08-03T21:44:46.778Z,1.77
2022-08-03T21:46:49.201Z,1.50
2022-08-03T21:48:56.364Z,1.83
2022-08-03T21:51:20.102Z,1.92
2022-08-03T21:53:23.621Z,1.75
2022-08-03T21:55:31.088Z,1.70
2022-08-03T21:57:34.861Z,2.00
2022-08-03T21:59:46.141Z,1.52
2022-08-03T22:01:49.053Z,1.42
2022-08-03T22:03:54.135Z,1.77
2022-08-03T22:06:02.420Z,1.88
2022-08-03T22:08:08.176Z,1.70
2022-08-03T22:10:10.824Z,1.80
2022-08-03T22:12:12.714Z,1.92
2022-08-03T22:14:15.781Z,1.90
2022-08-03T22:16:20.976Z,1.77
2022-08-03T22:18:22.706Z,2.13
2022-08-03T22:20:24.820Z,1.77
2022-08-03T22:22:28.835Z,1.80
2022-08-03T22:24:32.021Z,1.63
2022-08-03T22:26:35.978Z,1.95
2022-08-03T22:28:38.081Z,2.15
2022-08-03T22:30:40.755Z,2.05
2022-08-03T22:32:43.664Z,1.80
2022-08-03T22:34:47.491Z,2.35
2022-08-03T22:36:49.688Z,1.70
2022-08-03T22:38:52.626Z,1.67
2022-08-03T22:40:55.079Z,2.17
2022-08-03T22:42:57.153Z,2.35
2022-08-03T22:44:58.774Z,2.28
2022-08-03T22:47:00.475Z,1.95
2022-08-03T22:49:02.199Z,1.73
2022-08-03T22:51:05.402Z,1.40
2022-08-03T22:53:07.103Z,1.80
2022-08-03T22:55:11.674Z,1.80
2022-08-03T22:57:22.014Z,2.05
2022-08-03T22:59:39.747Z,2.25
2022-08-03T23:01:44.296Z,1.77
2022-08-03T23:03:59.877Z,2.00
2022-08-03T23:06:03.928Z,2.03
2022-08-03T23:08:08.404Z,2.28
2022-08-03T23:10:13.265Z,1.98
2022-08-03T23:12:18.442Z,1.92
2022-08-03T23:14:20.758Z,1.95
2022-08-03T23:16:27.945Z,2.35
2022-08-03T23:18:37.177Z,1.80
2022-08-03T23:20:40.320Z,1.58
2022-08-03T23:22:42.894Z,1.92
2022-08-03T23:24:44.906Z,1.80
2022-08-03T23:26:48.338Z,2.70
2022-08-03T23:28:50.388Z,2.00
2022-08-03T23:30:52.182Z,2.05
2022-08-03T23:32:54.911Z,1.70
2022-08-03T23:35:18.087Z,2.03
2022-08-03T23:37:20.631Z,1.60
2022-08-03T23:39:22.894Z,2.00
2022-08-03T23:41:24.719Z,1.90
2022-08-03T23:43:44.730Z,2.03
2022-08-03T23:45:56.004Z,2.08
2022-08-03T23:47:57.739Z,2.20
2022-08-03T23:49:59.546Z,1.83
2022-08-03T23:52:14.813Z,1.88
2022-08-03T23:54:22.416Z,2.10
2022-08-03T23:56:33.100Z,1.90
2022-08-03T23:58:34.826Z,2.05
